Mount Shasta, California
Current Conditions -  °F | °C
As of 9:56 AM on Friday 28 Nov 2014 (Local Time) from KMHS Reporting Station
Light Rain Light Rain  
Wind Chill:   Ceiling: 5000
Heat Index:   Visibility: 9mi
Dew Point:   Wind: 7mph
Humidity: 68%   Direction: 110°ESE
Pressure: 29.98"   Gusts: NA
Location:  41.31°N, 122.31°W
Report Text: KMHS 281756Z AUTO 11006KT 9SM -RA BKN050 OVC070 08/02 A2998 RMK AO2 RAB56 SLP164 P0000 60000 T00780022 10094 20078 53017
Loading
Personal Weather Stations






























Interactive Weather Map New forecast layout! Learn more

10-Day Weather Forecast

Advertisements
Track Severe Weather on mobile